Time;durP1;ratioP1;P1;durP2;ratioP2;P2;SDS_P1;SDS_P2;PMS_P1;PMS_P2;Temp;Humidity;BMP_temperature;BMP_pressure;BME280_temperature;BME280_humidity;BME280_pressure;Samples;Min_cycle;Max_cycle;Signal;HPM_P1;HPM_P2
2022/02/06 00:02:19;;;;;;;8.63;2.70;;;;;;;3.90;77.21;98443.66;4858101;29;20142;-88
2022/02/06 00:04:46;;;;;;;6.78;3.13;;;;;;;4.10;77.47;98471.53;4858485;29;20200;-89
2022/02/06 00:07:13;;;;;;;6.55;3.05;;;;;;;4.17;77.26;98490.75;4843062;29;20037;-89
2022/02/06 00:09:39;;;;;;;11.27;3.20;;;;;;;4.19;76.90;98480.81;4843322;29;20038;-89
2022/02/06 00:12:04;;;;;;;9.70;2.97;;;;;;;4.15;76.76;98463.75;4858175;29;20033;-88
2022/02/06 00:14:30;;;;;;;8.93;2.55;;;;;;;4.01;77.34;98429.78;4843061;29;20033;-89
2022/02/06 00:16:55;;;;;;;6.68;3.00;;;;;;;4.19;77.46;98454.41;4842630;29;20069;-89
2022/02/06 00:19:21;;;;;;;7.43;3.30;;;;;;;4.25;76.70;98458.81;4836398;29;20028;-88
2022/02/06 00:21:46;;;;;;;6.78;3.28;;;;;;;4.18;77.92;98442.22;4844085;29;20033;-89
2022/02/06 00:24:25;;;;;;;11.07;3.33;;;;;;;4.16;77.17;98446.91;4842655;29;20068;-89
2022/02/06 00:27:00;;;;;;;10.45;3.53;;;;;;;4.06;77.28;98419.38;4844382;29;20029;-88
2022/02/06 00:32:20;;;;;;;10.27;3.28;;;;;;;3.85;77.66;98380.97;4846186;29;20072;-88
2022/02/06 00:35:12;;;;;;;5.10;2.63;;;;;;;4.08;77.38;98410.22;4830462;29;20033;-89
2022/02/06 00:40:18;;;;;;;7.05;2.53;;;;;;;4.06;77.63;98383.22;4877195;29;20036;-89
2022/02/06 00:42:43;;;;;;;6.13;2.20;;;;;;;3.98;77.38;98367.63;4843066;29;20029;-88
2022/02/06 00:45:09;;;;;;;6.07;2.67;;;;;;;3.95;77.57;98362.81;4829236;29;20037;-89
2022/02/06 00:47:36;;;;;;;4.05;2.53;;;;;;;4.15;78.06;98392.44;4857444;29;20034;-88
2022/02/06 00:50:01;;;;;;;7.70;2.65;;;;;;;3.85;78.05;98322.91;4844609;29;20062;-89
2022/02/06 00:52:37;;;;;;;5.40;2.67;;;;;;;3.97;78.03;98342.28;4856320;29;20120;-89
2022/02/06 00:55:03;;;;;;;;;;;;;;;4.27;78.06;98396.00;4857161;29;20094;-89
2022/02/06 00:57:28;;;;;;;9.63;2.97;;;;;;;3.94;77.64;98334.78;4857633;29;19916;-89
2022/02/06 00:59:54;;;;;;;6.68;2.80;;;;;;;3.96;77.92;98339.84;4842439;29;20028;-88
2022/02/06 01:02:19;;;;;;;8.50;2.45;;;;;;;3.85;77.78;98304.41;4858853;29;20037;-89
2022/02/06 01:04:45;;;;;;;8.73;2.45;;;;;;;3.96;78.11;98313.44;4842256;29;20045;-88
2022/02/06 01:07:10;;;;;;;7.70;3.00;;;;;;;3.86;77.49;98298.13;4857225;29;20025;-89
2022/02/06 01:09:35;;;;;;;8.70;2.60;;;;;;;3.88;77.93;98292.63;4829899;29;20037;-89
2022/02/06 01:12:01;;;;;;;6.28;2.78;;;;;;;4.38;77.77;98365.41;4857434;29;20073;-88
2022/02/06 01:14:37;;;;;;;6.03;2.42;;;;;;;4.07;78.47;98315.34;4844316;29;20087;-88
2022/02/06 01:19:38;;;;;;;7.03;2.65;;;;;;;4.14;78.00;98345.97;4862443;29;20113;-88
2022/02/06 01:22:08;;;;;;;11.82;2.70;;;;;;;4.06;77.90;98306.66;4860888;29;20485;-89
2022/02/06 01:24:43;;;;;;;3.75;2.22;;;;;;;4.14;78.13;98332.75;4846183;29;20038;-88
2022/02/06 01:27:22;;;;;;;7.80;2.53;;;;;;;4.09;78.48;98319.41;4856132;29;20106;-88
2022/02/06 01:29:57;;;;;;;10.07;2.92;;;;;;;4.25;78.05;98332.03;4844533;29;20034;-89
2022/02/06 01:32:28;;;;;;;3.20;2.65;;;;;;;4.17;77.62;98313.03;4855700;29;20026;-89
2022/02/06 01:35:11;;;;;;;5.15;2.85;;;;;;;4.13;77.64;98299.44;4860740;29;20089;-89
2022/02/06 01:37:43;;;;;;;6.20;2.42;;;;;;;4.11;77.66;98279.56;4862843;29;20029;-89
2022/02/06 01:40:16;;;;;;;6.47;2.50;;;;;;;4.21;77.74;98280.69;4845774;29;20036;-90
2022/02/06 01:42:53;;;;;;;10.77;2.80;;;;;;;3.74;77.54;98207.50;4842093;29;20149;-89
2022/02/06 02:04:13;;;;;;;8.75;3.67;;;;;;;4.33;78.07;98255.09;4861339;29;20037;-89
2022/02/06 02:20:08;;;;;;;4.85;2.63;;;;;;;3.94;78.58;98135.97;4857041;29;20043;-88
2022/02/06 02:23:32;;;;;;;6.13;3.13;;;;;;;4.30;78.99;98194.78;4860902;29;20033;-89
2022/02/06 02:25:39;;;;;;;5.80;2.60;;;;;;;4.42;78.71;98219.44;4855602;29;20119;-89
2022/02/06 05:47:31;;;;;;;6.05;2.22;;;;;;;4.72;81.73;97920.72;4858612;29;20041;-86
2022/02/06 06:06:40;;;;;;;5.07;2.72;;;;;;;4.54;82.92;97878.63;4860725;29;20052;-86
2022/02/06 06:09:05;;;;;;;4.28;2.40;;;;;;;4.65;82.51;97883.06;4852994;29;20475;-85
2022/02/06 06:11:31;;;;;;;5.45;2.60;;;;;;;4.65;82.27;97892.84;4859288;29;21423;-85
2022/02/06 06:13:56;;;;;;;5.35;2.45;;;;;;;4.66;82.47;97874.09;4844956;29;20083;-85
2022/02/06 06:16:21;;;;;;;5.38;2.30;;;;;;;4.34;82.61;97823.53;4828821;29;20038;-85
2022/02/06 06:18:47;;;;;;;9.65;2.80;;;;;;;4.79;82.41;97888.88;4841412;29;20612;-87
2022/02/06 06:21:12;;;;;;;8.75;2.55;;;;;;;4.74;82.31;97876.34;4823521;29;20041;-85
2022/02/06 06:23:43;;;;;;;4.75;1.95;;;;;;;4.35;82.28;97801.34;4860133;29;20183;-85
2022/02/06 06:26:10;;;;;;;3.95;2.15;;;;;;;4.74;82.92;97871.06;4860350;29;20040;-85
2022/02/06 06:28:36;;;;;;;4.22;2.10;;;;;;;4.68;82.23;97844.78;4841380;29;20100;-85
2022/02/06 06:31:01;;;;;;;4.93;2.47;;;;;;;4.65;82.36;97861.94;4843584;29;20029;-86
2022/02/06 06:33:26;;;;;;;6.20;2.38;;;;;;;4.82;82.25;97878.66;4859418;29;20056;-85
2022/02/06 06:35:53;;;;;;;6.90;2.40;;;;;;;4.80;82.70;97872.00;4848098;29;20104;-85
2022/02/06 06:38:18;;;;;;;4.10;2.55;;;;;;;4.71;82.40;97850.41;4841150;29;20517;-85
2022/02/06 06:40:43;;;;;;;7.32;2.67;;;;;;;4.74;82.45;97854.44;4827247;29;20022;-86
2022/02/06 06:43:09;;;;;;;5.10;1.95;;;;;;;4.79;82.54;97852.69;4846248;29;20049;-85
2022/02/06 06:45:34;;;;;;;5.90;2.00;;;;;;;4.71;82.41;97833.75;4832465;29;20026;-85
2022/02/06 06:47:59;;;;;;;4.35;2.20;;;;;;;4.80;82.90;97848.19;4841788;29;20524;-84
2022/02/06 06:50:33;;;;;;;3.30;1.73;;;;;;;4.75;82.39;97834.88;4844928;29;20311;-84
2022/02/06 07:03:10;;;;;;;3.85;2.20;;;;;;;4.44;82.26;97781.47;4841700;29;20125;-85
2022/02/06 07:09:58;;;;;;;3.00;1.95;;;;;;;4.77;82.66;97823.03;4839820;29;20040;-87
2022/02/06 07:13:24;;;;;;;5.88;2.08;;;;;;;4.29;83.20;97746.84;4836791;29;20106;-85
2022/02/06 07:16:10;;;;;;;5.07;1.70;;;;;;;4.47;82.78;97773.06;4799882;29;20053;-85
2022/02/06 07:18:38;;;;;;;2.45;1.63;;;;;;;4.39;83.04;97752.28;4804207;29;20582;-85
2022/02/06 07:21:03;;;;;;;1.67;1.33;;;;;;;4.56;82.94;97782.19;4857251;29;20045;-86
2022/02/06 07:23:29;;;;;;;2.22;1.70;;;;;;;4.57;82.75;97788.28;4858963;29;20043;-85
2022/02/06 07:25:59;;;;;;;1.63;1.45;;;;;;;4.53;83.01;97748.34;4845000;29;20104;-85
2022/02/06 07:28:25;;;;;;;2.17;1.70;;;;;;;4.36;82.57;97736.94;4849031;29;20029;-86
2022/02/06 07:30:52;;;;;;;4.75;2.03;;;;;;;4.53;83.66;97747.53;4871614;29;20028;-86
2022/02/06 07:33:20;;;;;;;1.70;1.60;;;;;;;4.74;82.75;97785.72;4848210;29;20048;-85
2022/02/06 07:35:48;;;;;;;4.78;1.95;;;;;;;4.83;83.28;97793.00;4824864;29;20403;-87
2022/02/06 07:38:14;;;;;;;2.45;1.88;;;;;;;4.86;83.27;97779.31;4875746;29;20025;-86
2022/02/06 07:40:41;;;;;;;5.20;1.63;;;;;;;4.87;83.33;97790.72;4866848;29;20022;-85
2022/02/06 07:43:06;;;;;;;2.58;1.75;;;;;;;4.82;82.70;97762.34;4863571;29;20116;-85
2022/02/06 07:45:34;;;;;;;2.55;1.63;;;;;;;4.50;82.97;97709.19;4873681;29;20033;-85
2022/02/06 07:48:00;;;;;;;3.95;2.08;;;;;;;4.65;83.03;97731.63;4851983;29;20080;-85
2022/02/06 07:50:25;;;;;;;2.53;2.33;;;;;;;4.42;82.99;97685.00;4860293;29;20744;-85
2022/02/06 07:52:50;;;;;;;1.60;1.48;;;;;;;4.84;83.01;97762.09;4846947;29;20033;-85
2022/02/06 07:55:18;;;;;;;5.30;1.70;;;;;;;4.93;83.29;97766.75;4838567;29;20460;-85
2022/02/06 07:57:43;;;;;;;3.20;1.65;;;;;;;4.63;83.51;97715.22;4845928;29;20072;-86
2022/02/06 08:00:10;;;;;;;3.55;1.50;;;;;;;4.66;83.40;97704.97;4845018;29;20045;-85
2022/02/06 08:02:36;;;;;;;2.03;1.52;;;;;;;4.98;83.49;97756.25;4860860;29;20039;-86
2022/02/06 08:05:02;;;;;;;2.40;1.70;;;;;;;4.68;83.31;97694.16;4844730;29;20029;-86
2022/02/06 08:07:28;;;;;;;2.05;1.35;;;;;;;4.68;82.89;97708.16;4845811;29;20047;-85
2022/02/06 08:09:58;;;;;;;1.70;1.33;;;;;;;4.50;83.01;97680.13;4859815;29;20029;-84
2022/02/06 08:12:30;;;;;;;5.28;1.58;;;;;;;4.83;83.03;97713.72;4860872;29;20407;-85
2022/02/06 08:14:59;;;;;;;3.22;1.10;;;;;;;4.78;82.34;97703.06;4859364;29;20041;-85
2022/02/06 08:17:30;;;;;;;2.38;1.38;;;;;;;4.97;82.75;97733.50;4858302;29;20060;-85
2022/02/06 08:19:57;;;;;;;1.48;1.38;;;;;;;4.63;82.65;97668.44;4861385;29;20116;-85
2022/02/06 08:22:23;;;;;;;3.90;2.08;;;;;;;4.54;82.76;97656.69;4859891;29;20033;-85
2022/02/06 08:24:52;;;;;;;3.10;1.40;;;;;;;4.85;82.84;97697.63;4843242;29;20026;-85
2022/02/06 08:27:19;;;;;;;1.33;1.23;;;;;;;4.97;83.07;97720.28;4842638;29;20120;-84
2022/02/06 08:29:46;;;;;;;2.35;1.00;;;;;;;4.60;83.59;97646.97;4858784;29;20032;-85
2022/02/06 08:32:13;;;;;;;1.83;1.33;;;;;;;5.03;83.22;97705.28;4858633;29;20034;-84
2022/02/06 08:34:39;;;;;;;3.63;1.23;;;;;;;4.80;83.02;97671.09;4858735;29;20406;-85
2022/02/06 08:37:05;;;;;;;3.05;1.90;;;;;;;5.04;83.49;97696.34;4836607;29;20037;-85
2022/02/06 08:39:31;;;;;;;2.38;1.52;;;;;;;4.79;82.99;97656.28;4858174;29;20100;-85
2022/02/06 08:41:57;;;;;;;1.17;1.08;;;;;;;4.80;83.46;97653.41;4858716;29;20049;-85
2022/02/06 08:44:23;;;;;;;2.13;1.17;;;;;;;4.84;83.29;97651.88;4843466;29;20052;-85
2022/02/06 08:46:48;;;;;;;1.15;1.05;;;;;;;4.68;83.30;97623.59;4828475;29;20551;-86
2022/02/06 08:49:15;;;;;;;1.20;1.10;;;;;;;4.76;83.10;97632.97;4859093;29;20022;-88
2022/02/06 08:51:40;;;;;;;4.07;1.63;;;;;;;4.73;83.14;97604.38;4854630;29;20032;-84
2022/02/06 08:54:06;;;;;;;1.30;1.20;;;;;;;4.72;83.36;97592.22;4854928;29;20030;-86
2022/02/06 08:56:33;;;;;;;1.05;1.00;;;;;;;4.80;83.06;97608.47;4842537;29;20034;-86
2022/02/06 08:58:59;;;;;;;2.05;1.42;;;;;;;4.84;83.01;97592.91;4859092;29;20090;-85
2022/02/06 09:01:24;;;;;;;2.60;1.33;;;;;;;4.87;83.11;97590.56;4858959;29;20033;-86
2022/02/06 09:03:50;;;;;;;2.40;1.27;;;;;;;4.61;83.84;97540.25;4858904;29;20478;-85
2022/02/06 09:06:15;;;;;;;2.75;1.30;;;;;;;4.82;83.25;97581.78;4840630;29;20064;-85
2022/02/06 09:08:44;;;;;;;1.77;1.50;;;;;;;4.50;83.74;97518.16;4824857;29;20029;-86
2022/02/06 09:11:09;;;;;;;2.20;1.00;;;;;;;4.95;83.79;97581.44;4848813;29;20091;-86
2022/02/06 09:13:35;;;;;;;1.85;1.13;;;;;;;4.89;83.79;97556.00;4859052;29;20072;-86
2022/02/06 09:16:00;;;;;;;1.42;1.10;;;;;;;5.23;83.60;97613.84;4859187;29;20132;-86
2022/02/06 09:18:26;;;;;;;1.70;1.10;;;;;;;4.90;84.09;97560.22;4843261;29;20123;-85
2022/02/06 09:20:51;;;;;;;3.10;1.55;;;;;;;4.69;83.96;97531.91;4859047;29;20029;-85
2022/02/06 09:23:16;;;;;;;1.58;1.17;;;;;;;4.77;83.80;97548.16;4843269;29;20090;-86
2022/02/06 09:25:42;;;;;;;1.50;0.98;;;;;;;4.93;83.96;97580.91;4833442;29;20034;-85
2022/02/06 09:28:07;;;;;;;1.35;1.25;;;;;;;4.60;84.43;97504.31;4843210;29;20399;-86
2022/02/06 09:30:33;;;;;;;2.33;1.25;;;;;;;4.56;83.81;97494.22;4844639;29;20030;-86
2022/02/06 09:35:24;;;;;;;1.50;1.15;;;;;;;5.20;84.62;97585.22;4864507;29;20025;-85
2022/02/06 09:37:52;;;;;;;2.75;1.13;;;;;;;4.92;83.99;97535.16;4863770;29;20171;-87
2022/02/06 09:40:26;;;;;;;3.28;1.50;;;;;;;4.48;84.54;97468.22;4866786;29;20021;-87
2022/02/06 09:46:19;;;;;;;1.42;1.25;;;;;;;5.35;84.62;97574.06;4875302;29;20034;-87
2022/02/06 09:49:07;;;;;;;1.60;1.40;;;;;;;5.37;84.14;97595.78;4854539;29;20391;-87
2022/02/06 09:52:00;;;;;;;2.58;1.13;;;;;;;5.37;85.27;97598.41;4864136;29;20030;-87
2022/02/06 09:54:27;;;;;;;2.40;1.27;;;;;;;4.94;84.47;97508.44;4862119;29;20030;-86
2022/02/06 09:56:55;;;;;;;4.15;1.70;;;;;;;5.08;84.89;97521.09;4829603;29;20111;-86
2022/02/06 09:59:22;;;;;;;1.38;1.20;;;;;;;5.29;85.23;97546.72;4844301;29;20026;-86
2022/02/06 10:02:09;;;;;;;1.33;1.05;;;;;;;4.96;84.23;97501.06;4865007;29;20049;-87
2022/02/06 10:04:35;;;;;;;;;;;;;;;5.48;84.15;97560.47;4865856;29;22066;-87
2022/02/06 10:07:21;;;;;;;1.63;1.00;;;;;;;4.75;84.02;97449.81;4860367;29;19969;-86
2022/02/06 10:09:54;;;;;;;1.77;1.33;;;;;;;5.04;84.23;97501.47;4851611;29;20479;-86
2022/02/06 10:12:21;;;;;;;1.40;0.90;;;;;;;5.43;84.34;97557.75;4857477;29;20044;-86
2022/02/06 10:14:48;;;;;;;1.38;1.13;;;;;;;5.45;84.32;97550.34;4862613;29;20084;-86
2022/02/06 10:17:35;;;;;;;1.27;1.27;;;;;;;5.36;83.82;97508.69;4847532;29;20037;-86
2022/02/06 10:23:07;;;;;;;1.08;0.98;;;;;;;5.46;84.24;97514.91;4859325;29;20075;-86
2022/02/06 10:25:40;;;;;;;1.85;1.20;;;;;;;5.43;84.69;97517.25;4858191;29;20029;-86
2022/02/06 10:32:02;;;;;;;;;;;;;;;;;;;;;
2022/02/06 10:34:36;;;;;;;0.75;0.75;;;;;;;5.36;84.45;97469.81;4876993;29;20056;-86
2022/02/06 10:40:36;;;;;;;1.80;1.02;;;;;;;5.08;83.91;97412.66;4834186;29;20038;-86
2022/02/06 10:43:25;;;;;;;2.80;1.52;;;;;;;4.92;84.88;97376.53;4848501;29;20072;-86
2022/02/06 13:38:54;;;;;;;1.17;0.60;;;;;;;5.48;83.92;96895.56;4860764;29;20028;-89
2022/02/06 13:41:25;;;;;;;1.40;0.40;;;;;;;5.46;83.64;96900.31;4862514;29;20116;-89
2022/02/06 13:43:53;;;;;;;1.13;0.30;;;;;;;5.46;83.36;96895.03;4848069;29;20086;-87
2022/02/06 13:46:23;;;;;;;0.43;0.30;;;;;;;5.45;83.27;96866.97;4847537;29;20410;-88
2022/02/06 13:48:49;;;;;;;0.20;0.20;;;;;;;5.44;83.50;96865.41;4847517;29;20034;-90
2022/02/06 13:51:16;;;;;;;1.98;0.40;;;;;;;5.21;83.04;96827.03;4830412;29;20518;-90
2022/02/06 13:54:05;;;;;;;0.20;0.20;;;;;;;5.44;83.40;96860.88;4865357;29;20032;-88
2022/02/06 13:56:34;;;;;;;1.30;0.22;;;;;;;5.44;83.27;96839.72;4863272;29;20478;-87
2022/02/06 13:59:05;;;;;;;0.40;0.40;;;;;;;5.41;83.95;96842.09;4847029;29;20135;-88
2022/02/06 14:01:47;;;;;;;0.30;0.30;;;;;;;5.36;83.99;96816.44;4862480;29;20084;-90
2022/02/06 14:04:28;;;;;;;0.25;0.25;;;;;;;5.43;83.86;96795.81;4867276;29;20040;-90
2022/02/06 14:07:20;;;;;;;0.35;0.28;;;;;;;5.41;83.05;96823.59;4861342;29;20678;-87
2022/02/06 14:10:04;;;;;;;0.38;0.30;;;;;;;5.40;83.18;96790.25;4859943;29;20033;-85
2022/02/06 14:12:48;;;;;;;0.40;0.40;;;;;;;5.35;84.06;96822.00;4829187;29;20402;-85
2022/02/06 14:15:24;;;;;;;1.02;0.65;;;;;;;5.26;83.71;96801.34;4827760;29;20094;-84
2022/02/06 14:17:52;;;;;;;;;;;;;;;5.39;83.16;96773.59;4854374;29;20037;-88
2022/02/06 14:20:23;;;;;;;0.43;0.38;;;;;;;5.09;83.36;96733.94;4861466;29;20381;-87
2022/02/06 14:22:54;;;;;;;1.10;0.50;;;;;;;5.35;83.70;96793.72;4854374;29;20029;-87
2022/02/06 14:25:27;;;;;;;1.20;0.45;;;;;;;5.30;83.39;96777.84;4862312;29;20539;-87
2022/02/06 14:27:53;;;;;;;0.80;0.70;;;;;;;5.18;83.73;96735.78;4845872;29;20066;-87
2022/02/06 14:30:25;;;;;;;0.82;0.73;;;;;;;5.38;84.01;96766.72;4847093;29;20037;-89
2022/02/06 14:33:18;;;;;;;0.90;0.90;;;;;;;5.39;83.73;96818.56;4846004;29;20030;-88
2022/02/06 14:36:04;;;;;;;0.57;0.50;;;;;;;5.41;83.57;96781.25;4862283;29;20395;-90
2022/02/06 14:43:59;;;;;;;0.60;0.60;;;;;;;5.39;83.40;96802.69;4871148;29;20561;-86
2022/02/06 14:46:27;;;;;;;0.50;0.45;;;;;;;5.42;84.14;96799.50;4853150;29;20040;-86
2022/02/06 14:48:55;;;;;;;0.40;0.40;;;;;;;5.44;83.60;96834.41;4855742;29;20041;-85
2022/02/06 14:51:23;;;;;;;0.90;0.52;;;;;;;5.44;83.41;96810.63;4870267;29;20052;-88
2022/02/06 14:54:02;;;;;;;0.70;0.50;;;;;;;5.42;83.91;96782.88;4864707;29;20020;-89
2022/02/06 14:56:35;;;;;;;0.82;0.45;;;;;;;5.42;84.44;96783.63;4848284;29;20033;-89
2022/02/06 14:59:02;;;;;;;2.17;0.70;;;;;;;5.40;84.23;96848.44;4851340;29;20045;-87
2022/02/06 15:01:30;;;;;;;0.50;0.50;;;;;;;5.43;83.99;96855.84;4856548;29;20386;-88
2022/02/06 15:04:00;;;;;;;0.30;0.30;;;;;;;5.40;83.96;96833.38;4836905;29;20072;-87
2022/02/06 15:06:26;;;;;;;0.60;0.30;;;;;;;5.18;84.47;96836.25;4861745;29;20034;-89
2022/02/06 15:08:53;;;;;;;2.33;0.40;;;;;;;5.40;84.70;96859.81;4842745;29;20534;-87
2022/02/06 15:11:20;;;;;;;0.45;0.45;;;;;;;4.75;83.75;96783.06;4850196;29;20037;-89
2022/02/06 15:13:45;;;;;;;0.73;0.70;;;;;;;5.43;83.56;96893.69;4848396;29;20405;-91
2022/02/06 15:16:16;;;;;;;0.40;0.40;;;;;;;5.43;84.04;96896.34;4836572;29;20033;-87
2022/02/06 15:18:58;;;;;;;0.40;0.40;;;;;;;5.42;84.48;96918.53;4834494;29;20049;-86
2022/02/06 15:21:27;;;;;;;0.47;0.47;;;;;;;5.45;83.48;96963.00;4848028;29;20021;-86
2022/02/06 15:23:56;;;;;;;1.60;0.68;;;;;;;5.39;84.00;96958.78;4861659;29;20030;-86
2022/02/06 15:26:22;;;;;;;1.75;0.50;;;;;;;5.45;84.05;96992.09;4861438;29;20021;-87
2022/02/06 15:28:50;;;;;;;0.52;0.50;;;;;;;5.12;84.05;96963.44;4831467;29;20037;-88
2022/02/06 15:31:16;;;;;;;1.90;0.50;;;;;;;5.36;83.96;97012.19;4868704;23;20135;-79
2022/02/06 15:33:41;;;;;;;2.05;0.40;;;;;;;5.46;84.18;97035.25;4884283;29;20032;-79
2022/02/06 15:36:08;;;;;;;1.48;0.43;;;;;;;5.44;83.90;97048.69;4889363;29;20040;-78
2022/02/06 15:38:35;;;;;;;0.40;0.40;;;;;;;5.49;83.56;97045.28;4878061;29;20071;-79
2022/02/06 15:41:01;;;;;;;0.60;0.30;;;;;;;5.45;83.99;97015.91;4867841;29;20546;-78
2022/02/06 15:43:27;;;;;;;0.35;0.30;;;;;;;5.44;84.16;97024.91;4892303;29;20116;-80
2022/02/06 15:45:52;;;;;;;0.35;0.35;;;;;;;5.50;84.19;97050.34;4891198;29;20040;-81
2022/02/06 15:48:18;;;;;;;0.82;0.43;;;;;;;5.43;84.16;97052.41;4896156;29;20119;-81
2022/02/06 15:50:43;;;;;;;0.50;0.50;;;;;;;5.36;83.80;97043.91;4893900;29;20135;-79
2022/02/06 15:53:09;;;;;;;0.45;0.38;;;;;;;5.47;83.31;97056.13;4888231;29;20033;-79
2022/02/06 15:55:34;;;;;;;0.50;0.50;;;;;;;5.47;83.38;97061.44;4888200;29;20050;-80
2022/02/06 15:58:00;;;;;;;0.90;0.80;;;;;;;5.35;83.51;97052.94;4885717;29;20156;-81
2022/02/06 16:00:25;;;;;;;0.50;0.50;;;;;;;5.47;83.44;97076.50;4885292;29;20526;-79
2022/02/06 16:02:51;;;;;;;0.45;0.45;;;;;;;5.34;83.59;97069.84;4879558;29;20116;-79
2022/02/06 16:05:16;;;;;;;1.80;0.55;;;;;;;5.41;83.28;97078.34;4887175;29;20044;-79
2022/02/06 16:07:42;;;;;;;0.38;0.38;;;;;;;5.45;83.87;97078.59;4887749;29;20630;-80
2022/02/06 16:10:10;;;;;;;0.47;0.47;;;;;;;5.43;82.96;97086.81;4887535;29;20044;-79
2022/02/06 16:12:36;;;;;;;0.20;0.20;;;;;;;5.34;83.51;97072.47;4888740;29;20036;-81
2022/02/06 16:15:02;;;;;;;0.70;0.60;;;;;;;5.40;83.30;97084.66;4884931;29;20045;-80
2022/02/06 16:17:28;;;;;;;0.98;0.50;;;;;;;5.39;83.08;97079.66;4885869;29;20497;-79
2022/02/06 16:19:53;;;;;;;0.45;0.45;;;;;;;5.41;83.10;97077.53;4882748;29;20032;-80
2022/02/06 16:22:19;;;;;;;1.13;0.55;;;;;;;5.32;83.04;97067.47;4891369;29;20048;-82
2022/02/06 16:24:45;;;;;;;0.60;0.60;;;;;;;5.34;82.74;97067.19;4877601;29;20070;-80
2022/02/06 16:27:11;;;;;;;0.40;0.40;;;;;;;5.33;83.28;97068.22;4884896;29;20037;-81
2022/02/06 16:29:39;;;;;;;1.52;0.60;;;;;;;5.33;82.89;97058.47;4890254;29;20035;-82
2022/02/06 16:32:13;;;;;;;1.05;0.80;;;;;;;5.31;83.07;97063.22;4883231;29;20521;-85
2022/02/06 16:34:45;;;;;;;0.77;0.77;;;;;;;5.24;83.23;97062.66;4882182;29;20021;-81
2022/02/06 16:37:11;;;;;;;0.88;0.88;;;;;;;5.16;83.32;97057.84;4887218;29;20482;-79
2022/02/06 16:39:40;;;;;;;0.68;0.68;;;;;;;5.22;82.89;97067.41;4890659;29;20028;-80
2022/02/06 16:42:10;;;;;;;0.80;0.80;;;;;;;5.15;83.27;97055.47;4879975;29;20043;-81
2022/02/06 16:44:36;;;;;;;2.72;1.13;;;;;;;5.21;82.79;97083.53;4879097;29;20036;-81
2022/02/06 16:47:02;;;;;;;0.82;0.82;;;;;;;5.18;83.60;97076.09;4897804;29;20043;-80
2022/02/06 16:49:28;;;;;;;1.38;1.00;;;;;;;5.17;82.90;97074.53;4881346;29;20744;-78
2022/02/06 16:51:54;;;;;;;1.45;1.35;;;;;;;5.15;82.92;97072.16;4891158;29;20040;-78
2022/02/06 16:54:19;;;;;;;1.60;1.50;;;;;;;5.17;82.88;97064.75;4887750;29;20040;-78
2022/02/06 16:56:46;;;;;;;1.92;1.83;;;;;;;5.17;83.41;97066.59;4883292;29;20040;-78
2022/02/06 16:59:12;;;;;;;2.00;1.35;;;;;;;5.12;83.06;97067.38;4886337;29;20044;-78
2022/02/06 17:01:37;;;;;;;2.30;1.08;;;;;;;5.10;82.73;97076.59;4882429;29;20041;-78
2022/02/06 17:04:02;;;;;;;2.50;0.93;;;;;;;5.13;83.36;97081.38;4885119;29;20029;-78
2022/02/06 17:06:28;;;;;;;4.30;1.20;;;;;;;5.13;82.75;97079.50;4885458;29;20113;-78
2022/02/06 17:08:53;;;;;;;1.20;1.02;;;;;;;5.12;83.07;97077.13;4874176;29;20044;-78
2022/02/06 17:11:19;;;;;;;1.48;1.15;;;;;;;4.98;83.50;97060.16;4883796;29;20052;-84
2022/02/06 17:13:44;;;;;;;1.33;1.23;;;;;;;5.06;82.67;97075.53;4873010;29;20379;-78
2022/02/06 17:16:10;;;;;;;1.58;1.48;;;;;;;5.03;82.59;97063.63;4882608;29;20040;-78
2022/02/06 17:18:35;;;;;;;0.95;0.95;;;;;;;5.07;82.94;97061.25;4876205;29;20048;-78
2022/02/06 17:21:00;;;;;;;1.38;1.27;;;;;;;5.10;82.81;97060.75;4874462;29;20036;-78
2022/02/06 17:23:29;;;;;;;4.80;1.95;;;;;;;5.02;82.48;97048.78;4870139;29;20518;-78
2022/02/06 17:25:54;;;;;;;2.20;2.00;;;;;;;5.05;82.97;97045.63;4883750;29;20041;-78
2022/02/06 17:28:20;;;;;;;4.43;2.85;;;;;;;5.09;83.19;97051.19;4884531;29;20039;-78
2022/02/06 17:30:45;;;;;;;5.28;3.40;;;;;;;5.07;83.19;97048.00;4889651;29;20021;-78
2022/02/06 17:33:11;;;;;;;4.85;4.43;;;;;;;5.07;83.71;97037.44;4886544;29;20097;-78
2022/02/06 17:35:36;;;;;;;3.95;3.55;;;;;;;4.95;82.76;97031.59;4889101;29;20394;-78
2022/02/06 17:38:02;;;;;;;3.80;3.38;;;;;;;5.01;83.05;97041.94;4887838;29;20025;-78
2022/02/06 17:40:27;;;;;;;5.90;4.97;;;;;;;5.08;83.62;97041.69;4886164;29;20035;-78
2022/02/06 17:42:55;;;;;;;5.53;3.97;;;;;;;5.07;83.85;97035.59;4897533;29;20442;-78
2022/02/06 17:45:24;;;;;;;3.15;2.90;;;;;;;5.01;83.05;97039.28;4882875;29;20402;-78
2022/02/06 17:47:51;;;;;;;3.33;2.90;;;;;;;5.03;83.69;97039.00;4891543;29;20041;-78
2022/02/06 17:50:17;;;;;;;3.13;2.63;;;;;;;5.03;83.45;97036.38;4885016;29;20032;-78
2022/02/06 17:52:45;;;;;;;1.98;1.88;;;;;;;4.93;83.77;97042.41;4890005;29;20037;-78
2022/02/06 17:55:11;;;;;;;2.80;2.05;;;;;;;4.96;83.70;97044.53;4893313;29;20029;-78
2022/02/06 17:57:36;;;;;;;2.28;1.80;;;;;;;4.96;83.76;97033.16;4888553;29;20819;-78
2022/02/06 18:00:03;;;;;;;2.35;1.88;;;;;;;5.05;83.83;97031.63;4893073;29;20036;-78
2022/02/06 18:02:29;;;;;;;1.65;1.55;;;;;;;5.04;83.40;97030.03;4892849;29;20035;-78
2022/02/06 18:04:54;;;;;;;1.80;1.70;;;;;;;4.98;84.05;97028.44;4884362;29;20036;-78
2022/02/06 18:07:19;;;;;;;1.80;1.70;;;;;;;5.01;83.85;97044.56;4886516;29;20067;-78
2022/02/06 18:09:45;;;;;;;2.00;1.70;;;;;;;5.02;83.38;97037.44;4889289;29;20075;-78
2022/02/06 18:12:17;;;;;;;2.00;1.70;;;;;;;5.06;83.66;97039.31;4889504;29;20136;-78
2022/02/06 18:14:42;;;;;;;1.80;1.70;;;;;;;4.87;83.51;97005.66;4885179;29;20033;-78
2022/02/06 18:17:08;;;;;;;1.90;1.70;;;;;;;5.09;83.76;97048.56;4900076;29;20138;-78
2022/02/06 18:19:33;;;;;;;2.58;1.88;;;;;;;5.10;83.70;97050.16;4890497;29;20933;-78
2022/02/06 18:22:00;;;;;;;3.08;1.98;;;;;;;5.05;83.73;97050.13;4887130;29;20060;-78
2022/02/06 18:24:26;;;;;;;2.10;2.00;;;;;;;5.11;83.90;97046.47;4885189;29;20490;-78
2022/02/06 18:26:55;;;;;;;11.15;2.17;;;;;;;5.04;83.45;97046.72;4880545;29;20076;-76
2022/02/06 18:29:21;;;;;;;2.15;1.95;;;;;;;5.06;84.01;97041.97;4888249;29;20040;-76
2022/02/06 18:31:47;;;;;;;2.70;1.70;;;;;;;5.13;83.94;97054.94;4881612;29;20033;-76
2022/02/06 18:34:12;;;;;;;2.50;1.90;;;;;;;5.12;83.33;97053.34;4883410;29;20069;-76
2022/02/06 18:36:37;;;;;;;2.45;2.05;;;;;;;5.12;83.82;97048.06;4891963;29;20083;-76
2022/02/06 18:39:03;;;;;;;2.05;1.85;;;;;;;5.11;83.38;97051.75;4887371;29;20033;-76
2022/02/06 18:41:28;;;;;;;2.60;2.20;;;;;;;5.09;83.33;97046.72;4889836;29;20024;-76
2022/02/06 18:43:57;;;;;;;2.13;1.90;;;;;;;5.15;83.79;97042.25;4886600;29;20448;-76
2022/02/06 18:46:23;;;;;;;2.33;2.13;;;;;;;5.08;84.30;97044.34;4878372;29;20136;-76
2022/02/06 18:48:48;;;;;;;1.88;1.77;;;;;;;5.01;83.68;97030.53;4881270;29;20431;-76
2022/02/06 18:51:15;;;;;;;1.88;1.70;;;;;;;5.09;83.46;97009.69;4881485;29;20036;-76
2022/02/06 18:53:41;;;;;;;3.42;1.60;;;;;;;5.05;83.43;97007.81;4888141;29;20119;-78
2022/02/06 18:56:07;;;;;;;1.85;1.70;;;;;;;5.00;83.29;96994.59;4898210;29;20173;-78
2022/02/06 18:58:33;;;;;;;2.60;1.58;;;;;;;5.06;83.29;97015.53;4885606;29;20069;-78
2022/02/06 19:00:58;;;;;;;1.98;1.60;;;;;;;5.12;83.04;97024.25;4881684;29;20029;-78
2022/02/06 19:03:23;;;;;;;1.42;1.40;;;;;;;5.02;83.16;97014.41;4886875;29;20048;-78
2022/02/06 19:05:50;;;;;;;3.17;1.67;;;;;;;5.09;82.92;97019.47;4879607;29;20040;-78
2022/02/06 19:08:19;;;;;;;1.75;1.65;;;;;;;5.07;83.23;97011.81;4892159;29;20028;-78
2022/02/06 19:10:45;;;;;;;1.60;1.50;;;;;;;5.03;83.05;97004.66;4892656;29;20029;-78
2022/02/06 19:13:10;;;;;;;3.78;1.85;;;;;;;5.10;83.25;97021.06;4912690;29;20043;-78
2022/02/06 19:15:35;;;;;;;2.75;1.90;;;;;;;5.09;82.52;97027.41;4891740;29;20058;-78
2022/02/06 19:18:01;;;;;;;2.78;1.98;;;;;;;5.03;82.78;97017.88;4898351;29;20048;-78
2022/02/06 19:20:27;;;;;;;3.40;1.70;;;;;;;5.02;83.00;97016.28;4880659;29;20092;-78
2022/02/06 19:22:53;;;;;;;3.25;1.90;;;;;;;4.99;83.02;97024.72;4890112;29;20039;-77
2022/02/06 19:25:19;;;;;;;1.90;1.80;;;;;;;5.03;83.55;97037.16;4896912;29;20115;-78
2022/02/06 19:27:50;;;;;;;2.13;1.92;;;;;;;5.05;82.78;97050.13;4897693;29;20158;-78
2022/02/06 19:30:17;;;;;;;2.17;1.90;;;;;;;4.94;82.67;97041.34;4892943;29;20029;-78
2022/02/06 19:32:42;;;;;;;1.73;1.55;;;;;;;4.95;83.01;97065.94;4866827;29;20089;-78
2022/02/06 19:35:28;;;;;;;2.75;1.38;;;;;;;4.98;83.05;97078.66;4880083;29;20040;-78
2022/02/06 19:37:54;;;;;;;;;;;;;;;4.87;82.95;97108.72;4895605;29;20036;-79